Flight Track Log - Related Links

Times and Time Zones

All times are in EDT time to prevent confusion due to time zone crossing. See the RJC352 flight status page for this flight to view local times or setup timezone preferences in your user account.

Time Position Orientation Groundspeed Altitude Reporting Facility
EDT Latitude Longitude Course Direction KTS MPH feet Rate Location/Type
Wed 10:29:02 AM 40.9167 -74.0500 252° West 228 262 2,000  Level New York TRACON
Wed 10:30:02 AM 40.9333 -74.1167 288° West 256 295 3,000 1,789 Climbing New York TRACON
Wed 10:30:56 AM 40.9333 -74.2167 270° West 283 326 5,400 2,789 Climbing New York TRACON
Wed 10:31:56 AM 40.9333 -74.3167 270° West 299 344 8,300 2,774 Climbing New York TRACON
Wed 10:32:29 AM 40.9414 -74.3944 278° West 307 353 9,700 1,851 Climbing New York Center
Wed 10:33:30 AM 40.9422 -74.5069 271° West 355 409 11,200 2,200 Climbing New York Center
Wed 10:34:00 AM 40.6088 -74.8315 252° West  Level FlightAware Approximate
Wed 10:34:29 AM 40.9356 -74.6439 266° West 372 428 14,100  Level New York Center
Wed 10:35:30 AM 40.9272 -74.7697 265° West 389 448 16,000 1,388 Climbing New York Center
Wed 10:36:30 AM 40.9306 -74.9183 272° West 389 448 16,900 645 Climbing New York Center
Wed 10:37:31 AM 40.8736 -75.0492 240° Southwest 384 442 17,300 1,200 Climbing New York Center
Wed 10:38:30 AM 40.8136 -75.1553 233° Southwest 372 428 19,300 1,815 Climbing New York Center
Wed 10:39:30 AM 40.7411 -75.2547 226° Southwest 377 434 20,900 1,686 Climbing New York Center
Wed 10:40:31 AM 40.6686 -75.3539 226° Southwest 377 434 22,700 1,636 Climbing New York Center
Wed 10:41:31 AM 40.5978 -75.4558 228° Southwest 377 434 24,200 1,576 Climbing New York Center
Wed 10:42:29 AM 40.5247 -75.5600 227° Southwest 382 440 25,800 1,412 Climbing New York Center
Wed 10:43:30 AM 40.4519 -75.6639 227° Southwest 388 447 27,000 1,140 Climbing New York Center
Wed 10:44:30 AM 40.3764 -75.7731 228° Southwest 395 455 28,100 1,412 Climbing New York Center
Wed 10:45:29 AM 40.2989 -75.8819 227° Southwest 402 463 29,800 1,815 Climbing New York Center
Wed 10:46:29 AM 40.2169 -75.9872 224° Southwest 408 470 31,700 1,600 Climbing New York Center
Wed 10:47:29 AM 40.1567 -76.0806 230° Southwest 393 452 33,000 942 Climbing New York Center
Wed 10:48:30 AM 40.0831 -76.1861 228° Southwest 393 452 33,600 492 Climbing New York Center
Wed 10:49:31 AM 39.9967 -76.2933 224° Southwest 406 467 34,000 153 Climbing New York Center
Wed 10:50:28 AM 39.9183 -76.4089 229° Southwest 423 487 33,900 -51 Descending New York Center
Wed 10:51:29 AM 39.8336 -76.5211 226° Southwest 434 499 33,900  Level New York Center
Wed 10:51:53 AM 39.7972 -76.5719 227° Southwest 439 505 33,900  Level Washington Center
Wed 10:52:54 AM 39.7108 -76.6894 226° Southwest 451 519 33,900  Level Washington Center
Wed 10:53:55 AM 39.6242 -76.8067 226° Southwest 451 519 33,900  Level Washington Center
Wed 10:54:53 AM 39.5375 -76.9236 226° Southwest 451 519 33,900 51 Level Washington Center
Wed 10:55:53 AM 39.4508 -77.0375 225° Southwest 451 519 34,000 50 Climbing Washington Center
Wed 10:56:53 AM 39.3517 -77.1347 217° Southwest 451 519 34,000  Level Washington Center
Wed 10:57:54 AM 39.2458 -77.2506 220° Southwest 451 519 34,000  Level Washington Center
Wed 10:58:55 AM 39.1572 -77.3394 218° Southwest 456 525 34,000  Level Washington Center
Wed 10:59:52 AM 39.0597 -77.4389 218° Southwest 449 517 34,000  Level Washington Center
Wed 11:00:53 AM 38.9622 -77.5406 219° Southwest 449 517 34,000  Level Washington Center
Wed 11:01:53 AM 38.8561 -77.6522 219° Southwest 454 522 34,000  Level Washington Center
Wed 11:02:54 AM 38.7522 -77.7558 218° Southwest 460 529 34,000  Level Washington Center
Wed 11:03:55 AM 38.6544 -77.8594 220° Southwest 460 529 34,000 -50 Level Washington Center
Wed 11:04:53 AM 38.5728 -77.9844 230° Southwest 460 529 33,900  Descending Washington Center
Wed 11:05:53 AM 38.4992 -78.1172 235° Southwest 467 537 34,000 50 Climbing Washington Center
Wed 11:06:54 AM 38.4233 -78.2444 233° Southwest 467 537 34,000  Level Washington Center
Wed 11:07:55 AM 38.3475 -78.3742 233° Southwest 467 537 34,000  Level Washington Center
Wed 11:08:53 AM 38.2714 -78.5008 233° Southwest 467 537 34,000  Level Washington Center
Wed 11:09:54 AM 38.1994 -78.6275 234° Southwest 461 531 34,000  Level Washington Center
Wed 11:10:55 AM 38.1233 -78.7539 233° Southwest 456 525 34,000  Level Washington Center
Wed 11:11:53 AM 38.0469 -78.8800 232° Southwest 456 525 34,000  Level Washington Center
Wed 11:12:53 AM 37.9792 -78.9928 233° Southwest 456 525 34,000  Level Washington Center
Wed 11:13:54 AM 37.9025 -79.1183 232° Southwest 456 525 34,000  Level Washington Center
Wed 11:14:55 AM 37.8175 -79.2353 227° Southwest 456 525 34,000  Level Washington Center
Wed 11:15:53 AM 37.7239 -79.3647 228° Southwest 456 525 34,000  Level Washington Center
Wed 11:16:54 AM 37.6389 -79.4811 227° Southwest 461 531 34,000  Level Washington Center
Wed 11:17:55 AM 37.5625 -79.5847 227° Southwest 456 525 34,000  Level Washington Center
Wed 11:18:53 AM 37.4683 -79.7131 227° Southwest 456 525 34,000  Level Washington Center
Wed 11:19:53 AM 37.3894 -79.8214 228° Southwest 456 525 34,000  Level Washington Center
Wed 11:20:54 AM 37.2953 -79.9492 227° Southwest 461 531 34,000  Level Washington Center
Wed 11:22:33 AM 37.1556 -80.1353 227° Southwest 451 519 34,000  Level Atlanta Center
Wed 11:23:33 AM 37.0675 -80.2514 226° Southwest 456 525 34,000  Level Atlanta Center
Wed 11:24:33 AM 36.9794 -80.3700 227° Southwest 463 533 34,000  Level Atlanta Center
Wed 11:25:33 AM 36.8831 -80.4992 227° Southwest 463 533 34,000  Level Atlanta Center
Wed 11:26:33 AM 36.7925 -80.6172 226° Southwest 465 535 34,000  Level Atlanta Center
Wed 11:27:33 AM 36.7183 -80.7214 228° Southwest 458 527 34,000  Level Atlanta Center
Wed 11:29:33 AM 36.5308 -80.9669 226° Southwest 461 531 34,000  Level Atlanta Center
Wed 11:30:33 AM 36.4461 -81.0811 227° Southwest 460 529 34,000  Level Atlanta Center
Wed 11:31:33 AM 36.3569 -81.1978 227° Southwest 460 529 34,000  Level Atlanta Center
Wed 11:32:33 AM 36.2700 -81.3117 227° Southwest 460 529 34,000  Level Atlanta Center
Wed 11:33:33 AM 36.1828 -81.4278 227° Southwest 460 529 34,000  Level Atlanta Center
Wed 11:34:33 AM 36.0933 -81.5411 226° Southwest 460 529 34,000  Level Atlanta Center
Wed 11:35:33 AM 36.0039 -81.6567 226° Southwest 460 529 34,000  Level Atlanta Center
Wed 11:36:33 AM 35.9164 -81.7722 227° Southwest 468 539 34,000  Level Atlanta Center
Wed 11:37:33 AM 35.8244 -81.8875 225° Southwest 468 539 34,000  Level Atlanta Center
Wed 11:38:33 AM 35.7367 -81.9997 226° Southwest 454 522 34,000 -400 Level Atlanta Center
Wed 11:39:33 AM 35.6469 -82.1169 227° Southwest 459 528 33,200 -1,250 Descending Atlanta Center
Wed 11:40:33 AM 35.5547 -82.2339 226° Southwest 469 540 31,500 -1,400 Descending Atlanta Center
Wed 11:41:33 AM 35.4606 -82.3483 225° Southwest 469 540 30,400 -750 Descending Atlanta Center
Wed 11:42:33 AM 35.3783 -82.4544 226° Southwest 479 551 30,000 -200 Descending Atlanta Center
Wed 11:43:33 AM 35.2881 -82.5681 226° Southwest 471 542 30,000  Level Atlanta Center
Wed 11:44:33 AM 35.1975 -82.6789 225° Southwest 465 535 30,000  Level Atlanta Center
Wed 11:45:33 AM 35.1089 -82.7872 225° Southwest 459 528 30,000  Level Atlanta Center
Wed 11:46:33 AM 35.0225 -82.9000 227° Southwest 459 528 30,000 -250 Level Atlanta Center
Wed 11:47:33 AM 34.9314 -83.0075 224° Southwest 459 528 29,500 -750 Descending Atlanta Center
Wed 11:48:33 AM 34.8383 -83.1150 223° Southwest 459 528 28,500 -900 Descending Atlanta Center
Wed 11:49:33 AM 34.7558 -83.2222 227° Southwest 445 512 27,700 -1,200 Descending Atlanta Center
Wed 11:50:33 AM 34.6750 -83.3264 227° Southwest 438 504 26,100 -850 Descending Atlanta Center
Wed 11:51:33 AM 34.5711 -83.4308 220° Southwest 438 504 26,000 -50 Descending Atlanta Center
Wed 11:52:33 AM 34.4778 -83.5272 220° Southwest 451 519 26,000  Level Atlanta Center
Wed 11:53:33 AM 34.3864 -83.6311 223° Southwest 446 513 26,000  Level Atlanta Center
Wed 11:54:33 AM 34.2947 -83.7219 219° Southwest 441 507 26,000  Level Atlanta Center
Wed 11:55:33 AM 34.2011 -83.8178 220° Southwest 443 510 26,000 -300 Level Atlanta Center
Wed 11:56:33 AM 34.1094 -83.9183 222° Southwest 448 516 25,400 -750 Descending Atlanta Center
Wed 11:57:33 AM 34.0156 -84.0111 219° Southwest 443 510 24,500 -700 Descending Atlanta Center
Wed 11:58:33 AM 33.9319 -84.0989 221° Southwest 448 516 24,000 -350 Descending Atlanta Center
Wed 11:59:33 AM 33.8297 -84.2089 222° Southwest 448 516 23,800 -700 Descending Atlanta Center
Wed 12:00:33 PM 33.7356 -84.3011 219° Southwest 453 521 22,600 -1,250 Descending Atlanta Center
Wed 12:01:33 PM 33.6433 -84.3906 219° Southwest 441 507 21,300 -1,300 Descending Atlanta Center
Wed 12:02:33 PM 33.5575 -84.4800 221° Southwest 429 494 20,000 -650 Descending Atlanta Center
Wed 12:03:33 PM 33.4739 -84.5692 222° Southwest 405 466 20,000  Level Atlanta Center
Wed 12:04:33 PM 33.3856 -84.6583 220° Southwest 410 472 20,000  Level Atlanta Center
Wed 12:05:33 PM 33.2997 -84.7472 221° Southwest 416 479 20,000  Level Atlanta Center
Wed 12:06:33 PM 33.2094 -84.8383 220° Southwest 416 479 20,000  Level Atlanta Center
Wed 12:07:33 PM 33.1211 -84.9267 220° Southwest 416 479 20,000  Level Atlanta Center
Wed 12:08:33 PM 33.0431 -85.0103 222° Southwest 416 479 20,000  Level Atlanta Center
Wed 12:09:33 PM 32.9675 -85.0861 220° Southwest 386 444 20,000 -1,400 Level Atlanta Center
Wed 12:10:33 PM 32.8939 -85.1544 218° Southwest 327 376 17,200 -2,750 Descending Atlanta Center
Wed 12:11:33 PM 32.8264 -85.2206 219° Southwest 319 367 14,500 -2,600 Descending Atlanta Center
Wed 12:12:33 PM 32.7508 -85.2639 206° Southwest 314 361 12,000 -2,400 Descending Atlanta Center
Wed 12:13:33 PM 32.6631 -85.2603 178° South 301 346 9,700 -2,350 Descending Atlanta Center
Wed 12:14:33 PM 32.5778 -85.2517 175° South 301 346 7,300 -2,450 Descending Atlanta Center
Wed 12:15:33 PM 32.5064 -85.2803 199° South 277 319 4,800 -1,800 Descending Atlanta Center
Wed 12:16:33 PM 32.4972 -85.3614 262° West 223 257 3,700 -950 Descending Atlanta Center
Wed 12:17:33 PM 32.5069 -85.4231 281° West 189 217 2,900 -850 Descending Atlanta Center
Wed 12:18:33 PM 32.5464 -85.4361 344° North 131 151 2,000 -630 Descending Atlanta Center
Wed 12:20:34 PM 32.6333 -85.4333 North 142 163 1,000 -496 Descending Atlanta TRACON

Login

Don't have an account? Register now (free) for customized features, flight alerts, and more!